Time;durP1;ratioP1;P1;durP2;ratioP2;P2;SDS_P1;SDS_P2;PMS_P1;PMS_P2;Temp;Humidity;BMP_temperature;BMP_pressure;BME280_temperature;BME280_humidity;BME280_pressure;Samples;Min_cycle;Max_cycle;Signal;HPM_P1;HPM_P2
2021/03/24 00:00:42;;;;;;;65.07;50.60;;;;;;;;;;5053713;28;20674;-75
2021/03/24 00:03:09;;;;;;;74.55;52.33;;;;;;;;;;5053719;28;20200;-73
2021/03/24 00:05:38;;;;;;;73.15;52.75;;;;;;;;;;5053869;28;20191;-73
2021/03/24 00:08:06;;;;;;;73.43;51.88;;;;;;;;;;5053817;28;20246;-74
2021/03/24 00:10:33;;;;;;;67.10;51.25;;;;;;;;;;5053688;28;20189;-73
2021/03/24 00:13:00;;;;;;;69.55;50.75;;;;;;;;;;5054361;28;20743;-73
2021/03/24 00:15:28;;;;;;;76.63;52.47;;;;;;;;;;5055940;28;20626;-73
2021/03/24 00:17:55;;;;;;;73.80;54.65;;;;;;;;;;5055571;28;20229;-72
2021/03/24 00:20:24;;;;;;;69.85;51.60;;;;;;;;;;5056046;28;20218;-72
2021/03/24 00:22:52;;;;;;;75.05;54.90;;;;;;;;;;5056756;28;20621;-73
2021/03/24 00:25:19;;;;;;;72.07;54.67;;;;;;;;;;5057421;28;20224;-73
2021/03/24 00:27:48;;;;;;;67.32;52.70;;;;;;;;;;5057277;28;20213;-73
2021/03/24 00:30:16;;;;;;;78.20;56.67;;;;;;;;;;5057816;28;20570;-73
2021/03/24 00:32:43;;;;;;;67.15;53.90;;;;;;;;;;5056226;28;20213;-73
2021/03/24 00:35:11;;;;;;;85.78;58.97;;;;;;;;;;5057200;28;20184;-73
2021/03/24 00:37:39;;;;;;;84.53;56.75;;;;;;;;;;5057442;28;20624;-73
2021/03/24 00:40:08;;;;;;;82.95;55.00;;;;;;;;;;5055392;28;20189;-75
2021/03/24 00:42:35;;;;;;;72.85;54.08;;;;;;;;;;5054339;28;20206;-75
2021/03/24 00:45:03;;;;;;;83.82;60.00;;;;;;;;;;5055622;28;20194;-73
2021/03/24 00:47:29;;;;;;;112.90;73.55;;;;;;;;;;5054788;28;20193;-73
2021/03/24 00:49:57;;;;;;;97.05;69.68;;;;;;;;;;5054677;28;20618;-73
2021/03/24 00:52:24;;;;;;;91.25;63.30;;;;;;;;;;5055147;28;20225;-72
2021/03/24 00:54:51;;;;;;;86.00;59.45;;;;;;;;;;5055695;28;20201;-73
2021/03/24 00:57:19;;;;;;;80.88;56.50;;;;;;;;;;5054829;28;20640;-73
2021/03/24 00:59:46;;;;;;;82.43;56.95;;;;;;;;;;5056131;28;20201;-74
2021/03/24 01:02:12;;;;;;;78.97;55.28;;;;;;;;;;5056415;28;20186;-73
2021/03/24 01:04:40;;;;;;;86.50;58.75;;;;;;;;;;5053395;28;20215;-72
2021/03/24 01:07:07;;;;;;;83.43;56.38;;;;;;;;;;5054583;28;20247;-72
2021/03/24 01:09:34;;;;;;;86.10;57.60;;;;;;;;;;5055228;28;20189;-73
2021/03/24 01:12:01;;;;;;;75.22;56.05;;;;;;;;;;5055885;28;20218;-73
2021/03/24 01:14:29;;;;;;;80.43;56.55;;;;;;;;;;5058709;28;20220;-73
2021/03/24 01:16:56;;;;;;;77.97;57.08;;;;;;;;;;5058707;28;20233;-74
2021/03/24 01:19:23;;;;;;;80.00;56.83;;;;;;;;;;5058746;28;20244;-73
2021/03/24 01:21:50;;;;;;;82.63;62.85;;;;;;;;;;5059343;28;20201;-73
2021/03/24 01:24:17;;;;;;;78.53;57.92;;;;;;;;;;5059356;28;20283;-73
2021/03/24 01:26:44;;;;;;;75.75;56.80;;;;;;;;;;5058274;28;20196;-73
2021/03/24 01:29:11;;;;;;;88.30;61.30;;;;;;;;;;5057904;28;20584;-74
2021/03/24 01:31:39;;;;;;;80.18;57.20;;;;;;;;;;5058457;28;20216;-73
2021/03/24 01:34:06;;;;;;;88.25;56.97;;;;;;;;;;5057783;28;20260;-74
2021/03/24 01:36:33;;;;;;;73.90;56.53;;;;;;;;;;5058323;28;20190;-73
2021/03/24 01:39:00;;;;;;;85.95;63.00;;;;;;;;;;5058587;28;20192;-73
2021/03/24 01:41:28;;;;;;;83.20;59.25;;;;;;;;;;5057560;28;20197;-74
2021/03/24 01:43:55;;;;;;;77.00;56.72;;;;;;;;;;5055883;28;20205;-74
2021/03/24 01:46:28;;;;;;;83.55;58.85;;;;;;;;;;5056924;28;20242;-73
2021/03/24 01:48:57;;;;;;;80.85;58.63;;;;;;;;;;5055929;28;20201;-73
2021/03/24 01:51:26;;;;;;;84.80;58.53;;;;;;;;;;5056008;28;20198;-74
2021/03/24 01:53:54;;;;;;;75.15;59.42;;;;;;;;;;5055904;28;20271;-73
2021/03/24 01:56:22;;;;;;;75.80;56.78;;;;;;;;;;5055826;28;20549;-73
2021/03/24 01:58:49;;;;;;;82.18;58.10;;;;;;;;;;5055654;28;20194;-74
2021/03/24 02:01:16;;;;;;;88.05;62.33;;;;;;;;;;5055769;28;20191;-73
2021/03/24 02:03:43;;;;;;;89.07;61.72;;;;;;;;;;5057093;28;20239;-73
2021/03/24 02:06:14;;;;;;;79.43;59.65;;;;;;;;;;5058500;28;20193;-73
2021/03/24 02:08:43;;;;;;;79.68;59.40;;;;;;;;;;5058953;28;20257;-73
2021/03/24 02:11:13;;;;;;;78.53;58.13;;;;;;;;;;5060428;28;20204;-73
2021/03/24 02:13:43;;;;;;;75.65;58.25;;;;;;;;;;5062182;28;20319;-73
2021/03/24 02:16:15;;;;;;;81.53;59.50;;;;;;;;;;5059627;28;20192;-73
2021/03/24 02:18:45;;;;;;;72.75;56.53;;;;;;;;;;5058338;28;20225;-73
2021/03/24 02:21:16;;;;;;;82.47;60.30;;;;;;;;;;5058464;28;20630;-73
2021/03/24 02:23:49;;;;;;;87.72;61.97;;;;;;;;;;5056934;28;20240;-73
2021/03/24 02:26:19;;;;;;;81.88;60.28;;;;;;;;;;5055850;28;20196;-73
2021/03/24 02:28:50;;;;;;;85.05;63.85;;;;;;;;;;5056407;28;20197;-73
2021/03/24 02:31:19;;;;;;;78.50;60.80;;;;;;;;;;5055719;28;20570;-73
2021/03/24 02:33:47;;;;;;;80.78;61.25;;;;;;;;;;5054063;28;20278;-73
2021/03/24 02:36:16;;;;;;;78.38;60.30;;;;;;;;;;5055312;28;20224;-73
2021/03/24 02:38:44;;;;;;;84.03;61.90;;;;;;;;;;5055450;28;20205;-73
2021/03/24 02:41:13;;;;;;;85.72;62.60;;;;;;;;;;5055291;28;20192;-74
2021/03/24 02:43:41;;;;;;;80.75;59.47;;;;;;;;;;5055136;28;20657;-73
2021/03/24 02:46:11;;;;;;;80.00;59.58;;;;;;;;;;5055737;28;20659;-72
2021/03/24 02:48:38;;;;;;;86.95;59.90;;;;;;;;;;5055389;28;20189;-73
2021/03/24 02:51:09;;;;;;;85.75;62.03;;;;;;;;;;5055269;28;20236;-74
2021/03/24 02:53:38;;;;;;;76.05;57.10;;;;;;;;;;5055683;28;20290;-73
2021/03/24 02:56:06;;;;;;;81.35;59.28;;;;;;;;;;5055104;28;20279;-74
2021/03/24 02:58:34;;;;;;;83.07;63.88;;;;;;;;;;5055136;28;20281;-73
2021/03/24 03:01:02;;;;;;;78.05;58.35;;;;;;;;;;5054960;28;20199;-72
2021/03/24 03:03:32;;;;;;;81.45;61.00;;;;;;;;;;5055386;28;20190;-73
2021/03/24 03:06:02;;;;;;;87.13;61.72;;;;;;;;;;5055523;28;20189;-73
2021/03/24 03:08:30;;;;;;;84.80;65.55;;;;;;;;;;5054992;28;20212;-73
2021/03/24 03:11:01;;;;;;;79.72;59.97;;;;;;;;;;5055169;28;20251;-73
2021/03/24 03:13:32;;;;;;;83.50;63.03;;;;;;;;;;5054469;28;20229;-73
2021/03/24 03:16:02;;;;;;;88.20;61.63;;;;;;;;;;5055155;28;20206;-73
2021/03/24 03:18:31;;;;;;;69.28;57.63;;;;;;;;;;5054320;28;20288;-73
2021/03/24 03:21:03;;;;;;;72.97;58.85;;;;;;;;;;5054663;28;20189;-73
2021/03/24 03:23:32;;;;;;;90.38;62.50;;;;;;;;;;5054301;28;20185;-73
2021/03/24 03:26:00;;;;;;;90.50;63.40;;;;;;;;;;5053467;28;20191;-73
2021/03/24 03:28:29;;;;;;;94.10;68.15;;;;;;;;;;5054271;28;20640;-73
2021/03/24 03:30:58;;;;;;;79.00;59.92;;;;;;;;;;5054139;28;20192;-74
2021/03/24 03:33:26;;;;;;;95.57;65.35;;;;;;;;;;5054042;28;20220;-74
2021/03/24 03:35:53;;;;;;;92.60;66.15;;;;;;;;;;5053445;28;20198;-73
2021/03/24 03:38:22;;;;;;;90.00;66.45;;;;;;;;;;5054577;28;20205;-74
2021/03/24 03:40:51;;;;;;;82.90;62.28;;;;;;;;;;5054771;28;20591;-74
2021/03/24 03:43:19;;;;;;;93.20;68.47;;;;;;;;;;5054135;28;20230;-73
2021/03/24 03:45:48;;;;;;;96.35;67.80;;;;;;;;;;5053898;28;20655;-73
2021/03/24 03:48:16;;;;;;;89.90;65.30;;;;;;;;;;5053779;28;20193;-73
2021/03/24 03:50:46;;;;;;;87.60;65.82;;;;;;;;;;5054016;28;20189;-73
2021/03/24 03:53:17;;;;;;;95.38;65.20;;;;;;;;;;5053982;28;20308;-73
2021/03/24 03:55:47;;;;;;;78.68;60.22;;;;;;;;;;5054907;28;20189;-73
2021/03/24 03:58:19;;;;;;;88.35;65.35;;;;;;;;;;5053682;28;20661;-72
2021/03/24 04:00:52;;;;;;;83.90;63.22;;;;;;;;;;5054171;28;20189;-73
2021/03/24 04:03:20;;;;;;;78.68;60.55;;;;;;;;;;5053822;28;20277;-73
2021/03/24 04:05:50;;;;;;;77.82;61.88;;;;;;;;;;5054247;28;20614;-71
2021/03/24 04:08:21;;;;;;;90.82;62.42;;;;;;;;;;5052532;28;20564;-73
2021/03/24 04:10:51;;;;;;;83.70;63.70;;;;;;;;;;5054297;28;20661;-73
2021/03/24 04:13:18;;;;;;;93.95;63.42;;;;;;;;;;5053632;28;20240;-73
2021/03/24 04:15:46;;;;;;;88.63;66.90;;;;;;;;;;5052761;28;20200;-74
2021/03/24 04:18:17;;;;;;;84.35;64.85;;;;;;;;;;5053482;28;20289;-74
2021/03/24 04:20:45;;;;;;;81.93;60.53;;;;;;;;;;5053952;28;20213;-74
2021/03/24 04:23:15;;;;;;;86.57;64.03;;;;;;;;;;5054724;28;20201;-73
2021/03/24 04:25:44;;;;;;;98.93;68.50;;;;;;;;;;5055578;28;20205;-74
2021/03/24 04:28:14;;;;;;;87.20;62.50;;;;;;;;;;5054100;28;20219;-74
2021/03/24 04:30:44;;;;;;;85.78;65.10;;;;;;;;;;5052838;28;20203;-73
2021/03/24 04:33:14;;;;;;;92.03;63.70;;;;;;;;;;5053801;28;20687;-74
2021/03/24 04:35:42;;;;;;;87.40;63.00;;;;;;;;;;5053933;28;20201;-75
2021/03/24 04:38:20;;;;;;;99.97;65.85;;;;;;;;;;5054976;28;20553;-73
2021/03/24 04:40:54;;;;;;;85.45;63.13;;;;;;;;;;5054187;28;20192;-74
2021/03/24 04:43:24;;;;;;;81.35;61.80;;;;;;;;;;5053855;28;20196;-73
2021/03/24 04:45:54;;;;;;;90.25;64.93;;;;;;;;;;5053699;28;20205;-73
2021/03/24 04:48:23;;;;;;;92.18;69.50;;;;;;;;;;5057470;28;20192;-73
2021/03/24 04:50:55;;;;;;;76.40;59.17;;;;;;;;;;5058079;28;20259;-73
2021/03/24 04:53:22;;;;;;;85.25;60.63;;;;;;;;;;5057951;28;20260;-73
2021/03/24 04:55:51;;;;;;;83.32;61.78;;;;;;;;;;5056989;28;20194;-73
2021/03/24 04:58:29;;;;;;;83.57;60.58;;;;;;;;;;5057999;28;20328;-73
2021/03/24 05:00:59;;;;;;;81.68;62.30;;;;;;;;;;5057178;28;20191;-74
2021/03/24 05:03:29;;;;;;;81.82;60.08;;;;;;;;;;5057296;28;20193;-73
2021/03/24 05:05:58;;;;;;;84.97;61.20;;;;;;;;;;5057097;28;20192;-73
2021/03/24 05:08:30;;;;;;;87.45;64.38;;;;;;;;;;5056737;28;20223;-73
2021/03/24 05:10:59;;;;;;;96.32;65.57;;;;;;;;;;5057107;28;20283;-72
2021/03/24 05:13:29;;;;;;;83.65;60.30;;;;;;;;;;5057397;28;20259;-72
2021/03/24 05:15:59;;;;;;;83.45;57.10;;;;;;;;;;5057173;28;20194;-73
2021/03/24 05:18:27;;;;;;;71.85;55.78;;;;;;;;;;5058787;28;20690;-73
2021/03/24 05:20:55;;;;;;;78.28;58.13;;;;;;;;;;5067673;28;20208;-72
2021/03/24 05:23:23;;;;;;;84.72;61.50;;;;;;;;;;5067951;28;20288;-71
2021/03/24 05:25:55;;;;;;;91.22;62.15;;;;;;;;;;5061447;28;20248;-72
2021/03/24 05:28:24;;;;;;;80.70;60.92;;;;;;;;;;5056943;28;20185;-72
2021/03/24 05:30:54;;;;;;;72.75;54.08;;;;;;;;;;5056467;28;20194;-72
2021/03/24 05:33:23;;;;;;;82.03;59.47;;;;;;;;;;5056365;28;20236;-72
2021/03/24 05:35:54;;;;;;;67.32;54.33;;;;;;;;;;5056275;28;20245;-73
2021/03/24 05:38:22;;;;;;;78.03;59.50;;;;;;;;;;5055997;28;20193;-73
2021/03/24 05:41:12;;;;;;;79.47;59.25;;;;;;;;;;5056299;28;20627;-73
2021/03/24 05:43:45;;;;;;;75.15;57.47;;;;;;;;;;5041773;28;20250;-73
2021/03/24 05:46:20;;;;;;;85.43;58.30;;;;;;;;;;5055888;28;20200;-72
2021/03/24 05:48:51;;;;;;;79.65;57.22;;;;;;;;;;5055875;28;20740;-72
2021/03/24 05:51:24;;;;;;;74.65;56.50;;;;;;;;;;5055732;28;20194;-73
2021/03/24 05:54:05;;;;;;;77.60;56.15;;;;;;;;;;5055964;28;20228;-72
2021/03/24 05:56:38;;;;;;;84.35;59.42;;;;;;;;;;5055830;28;20205;-72
2021/03/24 05:59:08;;;;;;;94.53;65.25;;;;;;;;;;5055078;28;20192;-72
2021/03/24 06:01:40;;;;;;;82.30;58.75;;;;;;;;;;5055964;28;20189;-73
2021/03/24 06:04:15;;;;;;;83.57;59.40;;;;;;;;;;5055469;28;20667;-73
2021/03/24 06:07:01;;;;;;;80.82;57.53;;;;;;;;;;5055427;28;20211;-72
2021/03/24 06:09:46;;;;;;;77.22;55.75;;;;;;;;;;5055854;28;20219;-72
2021/03/24 06:12:21;;;;;;;78.75;55.67;;;;;;;;;;5055220;28;20211;-73
2021/03/24 06:15:03;;;;;;;80.90;59.88;;;;;;;;;;5055706;28;20184;-72
2021/03/24 06:17:41;;;;;;;78.28;55.58;;;;;;;;;;5055086;28;20237;-72
2021/03/24 06:20:16;;;;;;;77.07;56.35;;;;;;;;;;5055686;28;20212;-73
2021/03/24 06:22:49;;;;;;;71.90;56.38;;;;;;;;;;5055493;28;20529;-72
2021/03/24 06:25:21;;;;;;;70.55;55.20;;;;;;;;;;5055041;28;20192;-72
2021/03/24 06:28:02;;;;;;;68.70;54.17;;;;;;;;;;5055436;28;20195;-72
2021/03/24 06:30:35;;;;;;;74.95;55.85;;;;;;;;;;5055165;28;20199;-74
2021/03/24 06:33:21;;;;;;;70.75;55.63;;;;;;;;;;5053713;28;20236;-72
2021/03/24 06:35:56;;;;;;;75.97;55.70;;;;;;;;;;5055282;28;20198;-71
2021/03/24 06:38:26;;;;;;;68.25;53.55;;;;;;;;;;5055317;28;20216;-72
2021/03/24 06:41:08;;;;;;;67.35;55.35;;;;;;;;;;5054799;28;20546;-72
2021/03/24 06:43:48;;;;;;;81.07;56.42;;;;;;;;;;5054812;28;20683;-73
2021/03/24 06:46:23;;;;;;;72.50;54.45;;;;;;;;;;5054585;28;20190;-71
2021/03/24 06:48:54;;;;;;;72.97;55.25;;;;;;;;;;5055064;28;20311;-72
2021/03/24 06:51:39;;;;;;;75.32;53.28;;;;;;;;;;5054933;28;20295;-71
2021/03/24 06:54:20;;;;;;;69.47;54.20;;;;;;;;;;5024785;28;20228;-71
2021/03/24 06:56:59;;;;;;;70.68;54.55;;;;;;;;;;5042072;28;20205;-72
2021/03/24 06:59:46;;;;;;;67.43;54.42;;;;;;;;;;5054544;28;20192;-72
2021/03/24 07:02:30;;;;;;;64.65;50.80;;;;;;;;;;5054692;28;20201;-73
2021/03/24 07:05:14;;;;;;;69.70;52.90;;;;;;;;;;5054549;28;20205;-72
2021/03/24 07:08:05;;;;;;;68.97;50.45;;;;;;;;;;5054558;28;20200;-71
2021/03/24 07:10:45;;;;;;;60.88;49.70;;;;;;;;;;5053579;28;20213;-72
2021/03/24 07:13:40;;;;;;;70.65;49.47;;;;;;;;;;5054158;28;20704;-73
2021/03/24 07:16:09;;;;;;;63.17;49.17;;;;;;;;;;5054454;28;20189;-73
2021/03/24 07:18:43;;;;;;;61.05;49.88;;;;;;;;;;5053573;28;20328;-73
2021/03/24 07:21:28;;;;;;;63.08;51.15;;;;;;;;;;5054416;28;20612;-73
2021/03/24 07:24:03;;;;;;;58.13;48.50;;;;;;;;;;5054438;28;20189;-72
2021/03/24 07:26:37;;;;;;;58.72;49.72;;;;;;;;;;5052918;28;20211;-73
2021/03/24 07:29:11;;;;;;;62.53;51.08;;;;;;;;;;5054327;28;20197;-72
2021/03/24 07:31:45;;;;;;;56.25;46.60;;;;;;;;;;5054000;28;20185;-71
2021/03/24 07:34:22;;;;;;;57.10;47.03;;;;;;;;;;5054402;28;20221;-72
2021/03/24 07:37:00;;;;;;;62.05;48.95;;;;;;;;;;5053727;28;20194;-72
2021/03/24 07:39:36;;;;;;;65.05;48.33;;;;;;;;;;5053626;28;20206;-72
2021/03/24 07:42:25;;;;;;;55.50;46.22;;;;;;;;;;5054026;28;20200;-72
2021/03/24 07:45:16;;;;;;;53.90;45.63;;;;;;;;;;5053764;28;20198;-72
2021/03/24 07:48:02;;;;;;;58.88;45.22;;;;;;;;;;4992453;28;20211;-72
2021/03/24 07:50:33;;;;;;;52.03;44.20;;;;;;;;;;4992340;28;20192;-72
2021/03/24 07:53:04;;;;;;;53.95;45.67;;;;;;;;;;4992684;28;20338;-71
2021/03/24 07:55:36;;;;;;;58.60;45.70;;;;;;;;;;4992387;28;20195;-73
2021/03/24 07:58:08;;;;;;;50.97;45.50;;;;;;;;;;4992085;28;20203;-73
2021/03/24 08:00:38;;;;;;;50.47;44.28;;;;;;;;;;4992235;28;20195;-73
2021/03/24 08:03:08;;;;;;;50.67;42.28;;;;;;;;;;4992073;28;20552;-72
2021/03/24 08:05:46;;;;;;;51.70;44.45;;;;;;;;;;4992341;28;20204;-72
2021/03/24 08:08:17;;;;;;;47.67;42.67;;;;;;;;;;4992007;28;20192;-72
2021/03/24 08:10:51;;;;;;;53.15;45.15;;;;;;;;;;4992189;28;20208;-72
2021/03/24 08:13:33;;;;;;;60.42;45.22;;;;;;;;;;4991965;28;20729;-72
2021/03/24 08:16:08;;;;;;;47.30;41.95;;;;;;;;;;4992353;28;20193;-74
2021/03/24 08:18:45;;;;;;;47.30;42.28;;;;;;;;;;4991571;28;20313;-72
2021/03/24 08:21:16;;;;;;;47.55;42.10;;;;;;;;;;4993601;28;20192;-72
2021/03/24 08:24:11;;;;;;;50.88;42.20;;;;;;;;;;5014742;28;20261;-72
2021/03/24 08:26:42;;;;;;;49.15;43.92;;;;;;;;;;5058536;28;20197;-71
2021/03/24 08:29:14;;;;;;;50.55;44.55;;;;;;;;;;5057774;28;20195;-72
2021/03/24 08:31:53;;;;;;;46.22;40.67;;;;;;;;;;5057823;28;20192;-71
2021/03/24 08:34:23;;;;;;;48.30;42.85;;;;;;;;;;5057673;28;20275;-72
2021/03/24 08:36:55;;;;;;;50.75;44.30;;;;;;;;;;5057828;28;20199;-72
2021/03/24 08:39:47;;;;;;;44.55;38.00;;;;;;;;;;5057773;28;20187;-73
2021/03/24 08:42:34;;;;;;;51.33;45.08;;;;;;;;;;5058428;28;20239;-72
2021/03/24 08:45:10;;;;;;;48.38;43.15;;;;;;;;;;5057694;28;20190;-73
2021/03/24 08:47:41;;;;;;;52.13;46.60;;;;;;;;;;5056089;28;20188;-78
2021/03/24 08:50:14;;;;;;;52.95;44.00;;;;;;;;;;5058007;28;20473;-76
2021/03/24 08:52:46;;;;;;;50.70;45.13;;;;;;;;;;5058258;28;20297;-76
2021/03/24 08:55:18;;;;;;;48.45;42.90;;;;;;;;;;5057087;28;20594;-76
2021/03/24 08:57:52;;;;;;;49.33;44.10;;;;;;;;;;5057083;28;20184;-72
2021/03/24 09:00:25;;;;;;;53.42;44.63;;;;;;;;;;5057248;28;20199;-75
2021/03/24 09:03:00;;;;;;;47.40;41.85;;;;;;;;;;5056810;28;20202;-74
2021/03/24 09:05:28;;;;;;;56.38;42.00;;;;;;;;;;5056590;28;20192;-75
2021/03/24 09:08:08;;;;;;;51.55;45.38;;;;;;;;;;5056434;28;20202;-72
2021/03/24 09:10:42;;;;;;;51.73;46.10;;;;;;;;;;5056858;28;20187;-72
2021/03/24 09:13:14;;;;;;;52.88;42.72;;;;;;;;;;5056223;28;20470;-75
2021/03/24 09:15:47;;;;;;;53.80;46.77;;;;;;;;;;5056840;28;20200;-73
2021/03/24 09:18:20;;;;;;;52.07;44.20;;;;;;;;;;5056312;28;20536;-73
2021/03/24 09:21:11;;;;;;;52.17;40.23;;;;;;;;;;5056475;28;20462;-73
2021/03/24 09:23:51;;;;;;;53.15;45.80;;;;;;;;;;5055325;28;20910;-73
2021/03/24 09:26:30;;;;;;;54.07;43.33;;;;;;;;;;5055010;28;20218;-72
2021/03/24 09:29:06;;;;;;;52.07;43.10;;;;;;;;;;5056227;28;20784;-73
2021/03/24 09:31:47;;;;;;;58.37;47.50;;;;;;;;;;5056828;28;20430;-76
2021/03/24 09:34:16;;;;;;;51.13;45.63;;;;;;;;;;5055551;28;20480;-72
2021/03/24 09:36:53;;;;;;;54.23;47.37;;;;;;;;;;5038355;28;20706;-72
2021/03/24 09:39:23;;;;;;;51.30;45.40;;;;;;;;;;5055852;28;20450;-71
2021/03/24 09:41:52;;;;;;;56.33;44.50;;;;;;;;;;5057237;28;20408;-72
2021/03/24 09:44:22;;;;;;;51.57;45.90;;;;;;;;;;5056556;28;20784;-73
2021/03/24 09:46:50;;;;;;;58.07;48.20;;;;;;;;;;5056360;28;20795;-72
2021/03/24 09:49:21;;;;;;;60.40;44.77;;;;;;;;;;5055756;28;20429;-72
2021/03/24 09:51:51;;;;;;;68.77;48.83;;;;;;;;;;5055835;28;20427;-73
2021/03/24 09:54:19;;;;;;;120.13;75.78;;;;;;;;;;5056041;28;20472;-73
2021/03/24 09:56:56;;;;;;;55.73;47.53;;;;;;;;;;5054429;28;20593;-72
2021/03/24 09:59:29;;;;;;;55.73;48.10;;;;;;;;;;5055440;28;20442;-72
2021/03/24 10:02:01;;;;;;;57.17;47.50;;;;;;;;;;5055951;28;20420;-72
2021/03/24 10:04:46;;;;;;;59.33;50.23;;;;;;;;;;5055325;28;20785;-73
2021/03/24 10:07:17;;;;;;;55.43;46.87;;;;;;;;;;5053248;28;20983;-72
2021/03/24 10:09:45;;;;;;;59.60;48.60;;;;;;;;;;5055358;28;20412;-72
2021/03/24 10:12:26;;;;;;;61.80;50.03;;;;;;;;;;5055683;28;20448;-72
2021/03/24 10:15:01;;;;;;;61.20;48.20;;;;;;;;;;5054992;28;20543;-71
2021/03/24 10:17:33;;;;;;;59.87;49.27;;;;;;;;;;5055944;28;20864;-73
2021/03/24 10:20:03;;;;;;;63.17;51.20;;;;;;;;;;5056717;28;20424;-72
2021/03/24 10:22:36;;;;;;;62.17;50.07;;;;;;;;;;5055891;28;20751;-73
2021/03/24 10:25:05;;;;;;;72.13;54.03;;;;;;;;;;5055706;28;20441;-72
2021/03/24 10:27:33;;;;;;;65.30;51.07;;;;;;;;;;5055518;28;20423;-73
2021/03/24 10:30:08;;;;;;;45.90;39.70;;;;;;;;;;5054274;28;21005;-74
2021/03/24 10:32:37;;;;;;;66.67;47.90;;;;;;;;;;5055531;28;20507;-73
2021/03/24 10:35:11;;;;;;;59.13;43.87;;;;;;;;;;5055291;28;20450;-72
2021/03/24 10:37:48;;;;;;;63.23;45.87;;;;;;;;;;5057522;28;20424;-73
2021/03/24 10:40:22;;;;;;;64.90;47.23;;;;;;;;;;5056950;28;20417;-72
2021/03/24 10:42:54;;;;;;;63.87;52.40;;;;;;;;;;5057096;28;20808;-72
2021/03/24 10:45:24;;;;;;;64.73;50.07;;;;;;;;;;5055723;28;20416;-73
2021/03/24 10:47:54;;;;;;;61.00;50.87;;;;;;;;;;5055408;28;20461;-72
2021/03/24 10:50:40;;;;;;;61.33;53.23;;;;;;;;;;5055397;28;20457;-72
2021/03/24 10:53:10;;;;;;;51.77;41.60;;;;;;;;;;5055134;28;20515;-73
2021/03/24 10:55:38;;;;;;;64.10;50.50;;;;;;;;;;5054966;28;20413;-73
2021/03/24 10:58:13;;;;;;;61.47;52.00;;;;;;;;;;5053330;28;20445;-72
2021/03/24 11:00:44;;;;;;;51.47;39.30;;;;;;;;;;5053732;28;20457;-73
2021/03/24 11:03:14;;;;;;;63.93;52.90;;;;;;;;;;5055243;28;20459;-73
2021/03/24 11:05:43;;;;;;;59.87;50.53;;;;;;;;;;5054656;28;20482;-73
2021/03/24 11:08:20;;;;;;;54.23;47.57;;;;;;;;;;5054848;28;20413;-72
2021/03/24 11:10:49;;;;;;;55.40;47.37;;;;;;;;;;5054929;28;20417;-72
2021/03/24 11:13:23;;;;;;;55.50;45.97;;;;;;;;;;5053483;28;20472;-72
2021/03/24 11:16:04;;;;;;;58.33;48.13;;;;;;;;;;5054601;28;20438;-73
2021/03/24 11:18:33;;;;;;;55.27;46.60;;;;;;;;;;5054015;28;20477;-73
2021/03/24 11:21:02;;;;;;;57.43;49.47;;;;;;;;;;5054936;28;20453;-73
2021/03/24 11:23:34;;;;;;;56.77;49.50;;;;;;;;;;5054516;28;20743;-72
2021/03/24 11:26:03;;;;;;;62.27;51.30;;;;;;;;;;5055150;28;20479;-74
2021/03/24 11:28:35;;;;;;;55.47;48.00;;;;;;;;;;5054929;28;20393;-73
2021/03/24 11:31:05;;;;;;;59.73;47.47;;;;;;;;;;5054900;28;20433;-73
2021/03/24 11:33:34;;;;;;;58.40;48.13;;;;;;;;;;5054865;28;20457;-74
2021/03/24 11:36:02;;;;;;;53.23;45.50;;;;;;;;;;5056175;28;20417;-74
2021/03/24 11:38:38;;;;;;;56.13;48.27;;;;;;;;;;5058286;28;20514;-76
2021/03/24 11:41:07;;;;;;;52.43;44.03;;;;;;;;;;5054838;28;20454;-74
2021/03/24 11:43:36;;;;;;;53.43;45.33;;;;;;;;;;5055355;28;20416;-74
2021/03/24 11:46:16;;;;;;;54.67;47.37;;;;;;;;;;5054806;28;20421;-73
2021/03/24 11:49:01;;;;;;;58.33;47.83;;;;;;;;;;5053399;28;20500;-73
2021/03/24 11:51:34;;;;;;;60.87;48.67;;;;;;;;;;5054126;28;20409;-73
2021/03/24 11:54:05;;;;;;;60.37;49.23;;;;;;;;;;5054220;28;20461;-73
2021/03/24 11:56:43;;;;;;;60.17;48.73;;;;;;;;;;5053525;28;20844;-74
2021/03/24 11:59:13;;;;;;;52.57;46.60;;;;;;;;;;5054007;28;20519;-73
2021/03/24 12:01:49;;;;;;;52.80;46.37;;;;;;;;;;5053549;28;20454;-73
2021/03/24 12:04:24;;;;;;;53.37;47.60;;;;;;;;;;5053618;28;20456;-73
2021/03/24 12:06:55;;;;;;;58.03;51.63;;;;;;;;;;5054027;28;20417;-73
2021/03/24 12:09:23;;;;;;;56.67;50.47;;;;;;;;;;5053626;28;20936;-73
2021/03/24 12:11:50;;;;;;;52.37;45.00;;;;;;;;;;5052780;28;20493;-73
2021/03/24 12:14:20;;;;;;;56.83;50.50;;;;;;;;;;5054732;28;20804;-73
2021/03/24 12:16:50;;;;;;;56.47;46.93;;;;;;;;;;5054997;28;20461;-73
2021/03/24 12:19:28;;;;;;;59.93;51.17;;;;;;;;;;5055084;28;20796;-73
2021/03/24 12:21:55;;;;;;;59.93;50.20;;;;;;;;;;5053041;28;20447;-72
2021/03/24 12:24:25;;;;;;;67.87;50.57;;;;;;;;;;5052631;28;20428;-73
2021/03/24 12:26:52;;;;;;;55.17;48.27;;;;;;;;;;5053588;28;20917;-74
2021/03/24 12:29:24;;;;;;;61.73;48.97;;;;;;;;;;5053403;28;20556;-74
2021/03/24 12:31:54;;;;;;;64.80;50.43;;;;;;;;;;5052511;28;20599;-73
2021/03/24 12:34:21;;;;;;;59.03;48.23;;;;;;;;;;5052777;28;20938;-73
2021/03/24 12:36:49;;;;;;;57.77;48.93;;;;;;;;;;5053672;28;20446;-73
2021/03/24 12:39:26;;;;;;;59.37;48.47;;;;;;;;;;5053883;28;20451;-73
2021/03/24 12:41:53;;;;;;;51.93;44.67;;;;;;;;;;5053031;28;20439;-73
2021/03/24 12:44:24;;;;;;;56.67;47.33;;;;;;;;;;5054266;28;20417;-73
2021/03/24 12:46:58;;;;;;;65.57;50.00;;;;;;;;;;5053139;28;20428;-72
2021/03/24 12:49:27;;;;;;;59.03;48.73;;;;;;;;;;5053524;28;20891;-73
2021/03/24 12:51:58;;;;;;;54.47;46.70;;;;;;;;;;5053317;28;20408;-73
2021/03/24 12:54:25;;;;;;;57.20;48.23;;;;;;;;;;5053242;28;20978;-74
2021/03/24 12:57:16;;;;;;;54.33;48.20;;;;;;;;;;5051482;28;20474;-74
2021/03/24 12:59:48;;;;;;;57.93;48.67;;;;;;;;;;5038411;28;20986;-74
2021/03/24 13:02:30;;;;;;;53.57;48.00;;;;;;;;;;5053042;28;20890;-73
2021/03/24 13:05:03;;;;;;;60.97;46.80;;;;;;;;;;5051292;28;20471;-74
2021/03/24 13:07:35;;;;;;;51.57;46.20;;;;;;;;;;5053759;28;20417;-74
2021/03/24 13:10:17;;;;;;;53.80;46.87;;;;;;;;;;5057038;28;20981;-73
2021/03/24 13:12:48;;;;;;;54.77;46.10;;;;;;;;;;5044922;28;20535;-73
2021/03/24 13:15:22;;;;;;;50.90;44.83;;;;;;;;;;5057145;28;20604;-73
2021/03/24 13:18:01;;;;;;;52.83;45.27;;;;;;;;;;5057244;28;20471;-73
2021/03/24 13:20:36;;;;;;;47.67;41.40;;;;;;;;;;5057069;28;20409;-73
2021/03/24 13:23:09;;;;;;;50.67;44.87;;;;;;;;;;5057870;28;20520;-73
2021/03/24 13:25:39;;;;;;;49.47;43.60;;;;;;;;;;5057027;28;20812;-73
2021/03/24 13:28:18;;;;;;;48.73;42.57;;;;;;;;;;5056872;28;20413;-74
2021/03/24 13:30:48;;;;;;;55.43;46.10;;;;;;;;;;5057237;28;20410;-74
2021/03/24 13:33:23;;;;;;;48.33;42.40;;;;;;;;;;5057161;28;20478;-73
2021/03/24 13:35:57;;;;;;;54.60;45.30;;;;;;;;;;5056922;28;20520;-74
2021/03/24 13:38:27;;;;;;;54.10;46.47;;;;;;;;;;5056430;28;20436;-74
2021/03/24 13:40:54;;;;;;;75.93;61.27;;;;;;;;;;5056337;28;20418;-73
2021/03/24 13:43:24;;;;;;;51.87;46.47;;;;;;;;;;5055849;28;20420;-73
2021/03/24 13:45:54;;;;;;;46.97;41.90;;;;;;;;;;5056272;28;20401;-74
2021/03/24 13:48:24;;;;;;;53.67;46.30;;;;;;;;;;5055855;28;20468;-74
2021/03/24 13:50:54;;;;;;;52.23;46.50;;;;;;;;;;5056040;28;20489;-74
2021/03/24 13:53:26;;;;;;;55.40;47.60;;;;;;;;;;5056097;28;20531;-74
2021/03/24 13:55:59;;;;;;;51.63;43.40;;;;;;;;;;5056113;28;20808;-74
2021/03/24 13:58:41;;;;;;;51.47;43.13;;;;;;;;;;5056134;28;20431;-74
2021/03/24 14:01:14;;;;;;;51.07;45.43;;;;;;;;;;5055787;28;20435;-73
2021/03/24 14:03:44;;;;;;;50.17;44.67;;;;;;;;;;5055914;28;20434;-73
2021/03/24 14:06:18;;;;;;;48.43;43.30;;;;;;;;;;5056340;28;20501;-74
2021/03/24 14:08:52;;;;;;;52.00;46.17;;;;;;;;;;5056146;28;20410;-74
2021/03/24 14:11:37;;;;;;;50.60;44.70;;;;;;;;;;5054617;28;20450;-74
2021/03/24 14:14:12;;;;;;;52.80;45.07;;;;;;;;;;5056224;28;20465;-74
2021/03/24 14:16:45;;;;;;;51.90;46.40;;;;;;;;;;5056205;28;20412;-74
2021/03/24 14:19:24;;;;;;;51.67;46.30;;;;;;;;;;5055446;28;20505;-74
2021/03/24 14:21:55;;;;;;;47.63;42.47;;;;;;;;;;5055843;28;20934;-74
2021/03/24 14:24:41;;;;;;;46.60;41.70;;;;;;;;;;5055370;28;20774;-73
2021/03/24 14:27:12;;;;;;;51.47;45.80;;;;;;;;;;5055881;28;20434;-74
2021/03/24 14:29:45;;;;;;;44.40;38.80;;;;;;;;;;5055611;28;20419;-73
2021/03/24 14:32:21;;;;;;;52.13;46.57;;;;;;;;;;5055638;28;20414;-74
2021/03/24 14:35:03;;;;;;;51.03;45.53;;;;;;;;;;5054997;28;20836;-73
2021/03/24 14:37:47;;;;;;;52.70;44.27;;;;;;;;;;5054327;28;20815;-73
2021/03/24 14:40:25;;;;;;;52.17;46.50;;;;;;;;;;5055098;28;20454;-73
2021/03/24 14:42:54;;;;;;;49.33;44.13;;;;;;;;;;5057254;28;20783;-72
2021/03/24 14:45:35;;;;;;;52.90;47.23;;;;;;;;;;5057727;28;20456;-74